SCNO weather

Ñochaco Airport
Ñochaco, Los Lagos Region, Chile

Public forecast

Using degrees Celsius for public forecast. Weather courtesy of forecast.io.

METAR (pilot weather report)

Closest report is Cañal Bajo Carlos - Hott Siebert Airport, 18.8 nm (34.8 km) NNW. Retrieved 2019/07/21 22:00 UTC (1 hour ago):

SCJO 212200Z 27004KT 9999 -SHRA SCT015 BKN020CB BKN080 07/06 Q1013

TAF (pilot weather forecast)

Forecast is more than 6 hours old.

Closest forecast is Cañal Bajo Carlos - Hott Siebert Airport, 18.8 nm (34.8 km) NNW. Retrieved 2019/07/21 12:33 UTC (11 hours ago):

TAF SCJO 211040Z 2112/2124 28010KT 9999 BKN030 TN06/2112Z TX08/2118Z TEMPO 2118/2122 32005KT 8000 SHRA/TS SCT025CB OVC030